createdAt,value
2023-01-12T00:02:24.984Z,6.40
2023-01-12T00:04:53.000Z,6.40
2023-01-12T00:07:22.478Z,6.30
2023-01-12T00:09:50.464Z,6.30
2023-01-12T00:12:18.622Z,6.40
2023-01-12T00:14:46.811Z,6.40
2023-01-12T00:17:18.376Z,6.40
2023-01-12T00:19:46.845Z,6.40
2023-01-12T00:22:18.336Z,6.40
2023-01-12T00:24:49.932Z,6.40
2023-01-12T00:27:20.506Z,6.30
2023-01-12T00:29:49.282Z,6.30
2023-01-12T00:32:19.373Z,6.30
2023-01-12T00:34:47.519Z,6.30
2023-01-12T00:37:15.745Z,6.20
2023-01-12T00:39:56.596Z,6.20
2023-01-12T00:42:43.813Z,6.20
2023-01-12T00:45:24.797Z,6.10
2023-01-12T00:47:54.420Z,6.10
2023-01-12T00:50:22.766Z,6.10
2023-01-12T00:52:50.815Z,6.10
2023-01-12T00:55:18.929Z,6.10
2023-01-12T00:57:48.310Z,6.10
2023-01-12T01:00:17.889Z,6.10
2023-01-12T01:02:46.205Z,6.10
2023-01-12T01:05:14.539Z,6.10
2023-01-12T01:07:42.822Z,6.00
2023-01-12T01:10:12.209Z,6.10
2023-01-12T01:12:40.344Z,6.00
2023-01-12T01:15:10.784Z,6.00
2023-01-12T01:17:38.853Z,5.90
2023-01-12T01:20:07.628Z,5.90
2023-01-12T01:22:35.747Z,5.90
2023-01-12T01:25:03.938Z,5.90
2023-01-12T01:27:32.506Z,5.90
2023-01-12T01:30:00.518Z,5.90
2023-01-12T01:32:30.908Z,5.90
2023-01-12T01:34:59.073Z,5.90
2023-01-12T01:37:27.245Z,5.80
2023-01-12T01:39:56.216Z,5.80
2023-01-12T01:42:29.230Z,5.80
2023-01-12T01:45:07.480Z,5.70
2023-01-12T01:47:40.907Z,5.70
2023-01-12T01:50:17.066Z,5.80
2023-01-12T01:52:49.833Z,5.80
2023-01-12T01:55:22.285Z,5.70
2023-01-12T01:57:53.686Z,5.70
2023-01-12T02:00:22.784Z,5.60
2023-01-12T02:02:54.204Z,5.50
2023-01-12T02:05:25.984Z,5.50
2023-01-12T02:07:54.919Z,5.40
2023-01-12T02:10:23.063Z,5.30
2023-01-12T02:13:09.449Z,5.30
2023-01-12T10:26:06.539Z,7.20
2023-01-12T10:28:37.947Z,7.30
2023-01-12T10:31:06.396Z,7.40
2023-01-12T10:33:36.138Z,7.40
2023-01-12T10:36:06.977Z,7.50
2023-01-12T10:38:38.589Z,7.50
2023-01-12T10:41:17.011Z,7.60
2023-01-12T10:43:46.897Z,7.60
2023-01-12T10:46:17.268Z,7.60
2023-01-12T10:48:47.295Z,7.70
2023-01-12T10:51:26.172Z,7.70
2023-01-12T10:53:58.991Z,7.80
2023-01-12T10:56:35.673Z,7.80
2023-01-12T10:59:07.993Z,7.90
2023-01-12T11:01:47.582Z,8.00
2023-01-12T11:04:20.031Z,8.10
2023-01-12T11:06:58.551Z,8.20
2023-01-12T11:09:28.665Z,8.20
2023-01-12T11:12:00.018Z,8.30
2023-01-12T11:14:34.333Z,8.40
2023-01-12T11:17:21.145Z,8.40
2023-01-12T11:19:51.632Z,8.60
2023-01-12T11:22:27.337Z,8.60
2023-01-12T11:25:00.208Z,8.70
2023-01-12T11:27:35.085Z,8.70
2023-01-12T11:30:10.403Z,8.80
2023-01-12T11:32:43.046Z,8.90
2023-01-12T11:35:29.118Z,9.00
2023-01-12T11:38:01.632Z,9.00
2023-01-12T11:40:32.857Z,9.00
2023-01-12T11:43:29.883Z,9.00
2023-01-12T11:46:05.484Z,9.10
2023-01-12T11:48:40.088Z,9.20
2023-01-12T11:51:17.747Z,9.20
2023-01-12T11:53:46.375Z,9.20
2023-01-12T11:56:28.438Z,9.20
2023-01-12T11:59:06.782Z,9.20
2023-01-12T12:01:42.307Z,9.20
2023-01-12T12:04:22.549Z,9.20
2023-01-12T12:07:09.904Z,9.20
2023-01-12T12:09:54.271Z,9.20
2023-01-12T12:12:32.714Z,9.20
2023-01-12T12:15:18.069Z,9.20
2023-01-12T12:17:56.006Z,9.30
2023-01-12T12:20:55.122Z,9.30
2023-01-12T12:23:31.535Z,9.30
2023-01-12T12:26:09.215Z,9.30
2023-01-12T12:28:58.093Z,9.40
2023-01-12T12:31:45.852Z,9.30
2023-01-12T12:34:29.918Z,9.30
2023-01-12T12:37:03.171Z,9.40
2023-01-12T12:39:49.035Z,9.30
2023-01-12T12:43:03.424Z,9.30
2023-01-12T12:45:42.703Z,9.40
2023-01-12T12:48:16.633Z,9.40
2023-01-12T12:50:51.043Z,9.40
2023-01-12T12:53:25.325Z,9.40
2023-01-12T12:55:55.550Z,9.40
2023-01-12T12:58:38.916Z,9.40
2023-01-12T13:01:43.804Z,9.50
2023-01-12T13:04:14.957Z,9.50
2023-01-12T13:06:50.591Z,9.60
2023-01-12T13:09:38.203Z,9.50
2023-01-12T13:12:32.349Z,9.60
2023-01-12T13:15:37.755Z,9.60
2023-01-12T13:18:07.256Z,9.60
2023-01-12T13:20:55.741Z,9.60
2023-01-12T13:23:44.583Z,9.60
2023-01-12T13:26:52.209Z,9.60
2023-01-12T13:29:40.850Z,9.50
2023-01-12T13:32:43.908Z,9.50
2023-01-12T13:35:55.747Z,9.50
2023-01-12T13:38:56.337Z,9.50
2023-01-12T13:41:47.214Z,9.50
2023-01-12T13:44:47.129Z,9.40
2023-01-12T13:47:32.909Z,9.40
2023-01-12T13:50:03.354Z,9.30
2023-01-12T13:52:34.007Z,9.20
2023-01-12T13:55:03.174Z,9.20
2023-01-12T13:57:32.915Z,9.10
2023-01-12T14:00:04.780Z,9.10
2023-01-12T14:02:41.812Z,9.10
2023-01-12T14:05:35.711Z,9.00
2023-01-12T14:08:26.154Z,9.00
2023-01-12T14:11:00.963Z,9.00
2023-01-12T14:13:43.137Z,9.10
2023-01-12T14:16:31.492Z,9.10
2023-01-12T14:18:59.719Z,9.10
2023-01-12T14:21:32.807Z,9.10
2023-01-12T14:24:16.279Z,9.20
2023-01-12T14:26:44.483Z,9.20
2023-01-12T14:29:14.080Z,9.20
2023-01-12T14:31:45.409Z,9.20
2023-01-12T14:34:28.641Z,9.30
2023-01-12T14:36:57.698Z,9.50
2023-01-12T14:39:27.580Z,9.70
2023-01-12T14:42:14.428Z,9.90
2023-01-12T14:45:20.830Z,10.00
2023-01-12T14:47:49.871Z,10.20
2023-01-12T14:50:20.267Z,10.20
2023-01-12T14:52:49.538Z,10.20
2023-01-12T14:55:19.395Z,10.20
2023-01-12T14:57:51.634Z,10.20
2023-01-12T15:00:24.523Z,10.10
2023-01-12T15:02:55.473Z,10.10
2023-01-12T15:05:26.412Z,10.00
2023-01-12T15:07:57.279Z,9.90
2023-01-12T15:10:34.394Z,9.80
2023-01-12T15:13:24.790Z,9.80
2023-01-12T15:16:13.258Z,9.70
2023-01-12T15:18:58.835Z,9.70
2023-01-12T15:21:45.626Z,9.60
2023-01-12T15:24:43.089Z,9.50
2023-01-12T15:27:13.180Z,9.50
2023-01-12T15:29:41.351Z,9.40
2023-01-12T15:32:19.073Z,9.30
2023-01-12T15:34:47.803Z,9.30
2023-01-12T15:37:16.921Z,9.30
2023-01-12T15:39:44.936Z,9.30
2023-01-12T15:42:17.277Z,9.20
2023-01-12T15:44:45.578Z,9.20
2023-01-12T15:47:16.499Z,9.20
2023-01-12T15:49:48.570Z,9.10
2023-01-12T15:52:20.175Z,9.00
2023-01-12T15:54:48.202Z,9.00
2023-01-12T15:57:17.241Z,8.90
2023-01-12T15:59:45.317Z,8.90
2023-01-12T16:02:34.204Z,8.80
2023-01-12T16:05:02.561Z,8.70
2023-01-12T16:07:30.665Z,8.60
2023-01-12T16:09:59.033Z,8.50
2023-01-12T16:12:27.232Z,8.50
2023-01-12T16:14:56.552Z,8.40
2023-01-12T16:17:24.692Z,8.40
2023-01-12T16:19:54.091Z,8.30
2023-01-12T16:22:26.315Z,8.20
2023-01-12T16:24:57.038Z,8.20
2023-01-12T16:27:27.011Z,8.10
2023-01-12T16:29:55.463Z,8.00
2023-01-12T16:32:25.035Z,8.00
2023-01-12T16:34:54.881Z,7.90
2023-01-12T16:37:27.368Z,7.90
2023-01-12T16:39:55.971Z,7.90
2023-01-12T16:42:24.053Z,7.90
2023-01-12T16:44:52.218Z,7.80
2023-01-12T16:47:21.509Z,7.80
2023-01-12T16:49:51.002Z,7.80
2023-01-12T16:52:22.558Z,7.80
2023-01-12T16:54:50.894Z,7.70
2023-01-12T16:57:20.205Z,7.70
2023-01-12T16:59:49.590Z,7.70
2023-01-12T17:02:19.443Z,7.70
2023-01-12T17:04:49.189Z,7.70
2023-01-12T17:07:17.430Z,7.70
2023-01-12T17:09:46.951Z,7.70
2023-01-12T17:12:15.359Z,7.60
2023-01-12T17:14:43.807Z,7.60
2023-01-12T17:17:12.576Z,7.50
2023-01-12T17:19:42.957Z,7.40
2023-01-12T17:22:11.928Z,7.40
2023-01-12T17:24:41.750Z,7.40
2023-01-12T17:27:12.098Z,7.30
2023-01-12T17:29:40.364Z,7.30
2023-01-12T17:32:09.165Z,7.30
2023-01-12T17:34:39.536Z,7.30
2023-01-12T17:37:08.736Z,7.30
2023-01-12T17:39:39.711Z,7.30
2023-01-12T17:42:25.803Z,7.30
2023-01-12T17:44:55.297Z,7.20
2023-01-12T17:47:23.517Z,7.20
2023-01-12T17:49:52.613Z,7.20
2023-01-12T17:52:20.995Z,7.20
2023-01-12T17:54:49.181Z,7.20
2023-01-12T17:57:17.243Z,7.20
2023-01-12T17:59:45.341Z,7.20
2023-01-12T18:02:15.316Z,7.20
2023-01-12T18:04:43.511Z,7.20
2023-01-12T18:07:11.822Z,7.20
2023-01-12T18:09:39.893Z,7.20
2023-01-12T18:12:10.398Z,7.30
2023-01-12T18:14:38.877Z,7.30
2023-01-12T18:17:09.270Z,7.30
2023-01-12T18:19:40.199Z,7.40
2023-01-12T18:22:11.002Z,7.40
2023-01-12T18:24:39.216Z,7.40
2023-01-12T18:27:07.274Z,7.40
2023-01-12T18:29:35.677Z,7.40
2023-01-12T18:32:04.026Z,7.50
2023-01-12T18:34:32.025Z,7.50
2023-01-12T18:37:01.380Z,7.50
2023-01-12T18:39:30.286Z,7.50
2023-01-12T18:42:15.859Z,7.50
2023-01-12T18:44:44.329Z,7.50
2023-01-12T18:47:33.138Z,7.50
2023-01-12T18:50:21.795Z,7.50
